sensor_id;sensor_type;location;lat;lon;timestamp;P1;durP1;ratioP1;P2;durP2;ratioP2
5042;SDS011;2540;50.928;6.856;2024-03-25T00:01:49;14.67;;;3.07;;
5042;SDS011;2540;50.928;6.856;2024-03-25T00:04:15;9.37;;;3.00;;
5042;SDS011;2540;50.928;6.856;2024-03-25T00:06:40;13.67;;;3.93;;
5042;SDS011;2540;50.928;6.856;2024-03-25T00:09:06;14.60;;;3.90;;
5042;SDS011;2540;50.928;6.856;2024-03-25T00:11:32;9.00;;;2.33;;
5042;SDS011;2540;50.928;6.856;2024-03-25T00:13:58;12.67;;;3.17;;
5042;SDS011;2540;50.928;6.856;2024-03-25T00:16:23;9.03;;;2.50;;
5042;SDS011;2540;50.928;6.856;2024-03-25T00:18:48;14.73;;;2.67;;
5042;SDS011;2540;50.928;6.856;2024-03-25T00:21:14;12.80;;;3.17;;
5042;SDS011;2540;50.928;6.856;2024-03-25T00:23:39;13.07;;;2.63;;
5042;SDS011;2540;50.928;6.856;2024-03-25T00:26:04;11.60;;;3.00;;
5042;SDS011;2540;50.928;6.856;2024-03-25T00:28:30;14.73;;;2.93;;
5042;SDS011;2540;50.928;6.856;2024-03-25T00:30:55;18.43;;;4.23;;
5042;SDS011;2540;50.928;6.856;2024-03-25T00:33:20;13.03;;;3.40;;
5042;SDS011;2540;50.928;6.856;2024-03-25T00:35:45;6.23;;;2.83;;
5042;SDS011;2540;50.928;6.856;2024-03-25T00:38:11;11.27;;;3.10;;
5042;SDS011;2540;50.928;6.856;2024-03-25T00:40:36;19.07;;;4.20;;
5042;SDS011;2540;50.928;6.856;2024-03-25T00:43:02;10.80;;;3.50;;
5042;SDS011;2540;50.928;6.856;2024-03-25T00:45:28;22.63;;;4.07;;
5042;SDS011;2540;50.928;6.856;2024-03-25T00:47:55;13.83;;;3.60;;
5042;SDS011;2540;50.928;6.856;2024-03-25T00:50:21;12.23;;;3.23;;
5042;SDS011;2540;50.928;6.856;2024-03-25T00:52:46;14.97;;;3.80;;
5042;SDS011;2540;50.928;6.856;2024-03-25T00:55:12;20.13;;;2.80;;
5042;SDS011;2540;50.928;6.856;2024-03-25T00:57:37;14.20;;;3.67;;
5042;SDS011;2540;50.928;6.856;2024-03-25T01:00:03;12.33;;;3.17;;
5042;SDS011;2540;50.928;6.856;2024-03-25T01:02:29;19.90;;;4.00;;
5042;SDS011;2540;50.928;6.856;2024-03-25T01:04:55;17.27;;;3.70;;
5042;SDS011;2540;50.928;6.856;2024-03-25T01:07:21;10.47;;;2.77;;
5042;SDS011;2540;50.928;6.856;2024-03-25T01:09:47;20.80;;;3.63;;
5042;SDS011;2540;50.928;6.856;2024-03-25T01:12:15;7.90;;;2.73;;
5042;SDS011;2540;50.928;6.856;2024-03-25T01:14:41;12.03;;;2.70;;
5042;SDS011;2540;50.928;6.856;2024-03-25T01:17:06;13.63;;;3.90;;
5042;SDS011;2540;50.928;6.856;2024-03-25T01:19:31;16.93;;;3.40;;
5042;SDS011;2540;50.928;6.856;2024-03-25T01:21:57;27.90;;;3.20;;
5042;SDS011;2540;50.928;6.856;2024-03-25T01:24:22;27.63;;;3.07;;
5042;SDS011;2540;50.928;6.856;2024-03-25T01:26:47;21.03;;;3.83;;
5042;SDS011;2540;50.928;6.856;2024-03-25T01:29:13;16.07;;;3.30;;
5042;SDS011;2540;50.928;6.856;2024-03-25T01:31:38;15.53;;;3.23;;
5042;SDS011;2540;50.928;6.856;2024-03-25T01:34:04;10.37;;;3.13;;
5042;SDS011;2540;50.928;6.856;2024-03-25T01:36:29;21.07;;;3.20;;
5042;SDS011;2540;50.928;6.856;2024-03-25T01:38:55;11.50;;;3.57;;
5042;SDS011;2540;50.928;6.856;2024-03-25T01:41:21;15.50;;;3.37;;
5042;SDS011;2540;50.928;6.856;2024-03-25T01:43:48;23.80;;;3.23;;
5042;SDS011;2540;50.928;6.856;2024-03-25T01:46:13;9.17;;;3.20;;
5042;SDS011;2540;50.928;6.856;2024-03-25T01:48:40;18.87;;;2.80;;
5042;SDS011;2540;50.928;6.856;2024-03-25T01:51:05;12.73;;;2.83;;
5042;SDS011;2540;50.928;6.856;2024-03-25T01:53:30;9.53;;;2.87;;
5042;SDS011;2540;50.928;6.856;2024-03-25T01:55:56;12.77;;;3.27;;
5042;SDS011;2540;50.928;6.856;2024-03-25T01:58:24;9.67;;;3.10;;
5042;SDS011;2540;50.928;6.856;2024-03-25T02:00:50;13.70;;;4.00;;
5042;SDS011;2540;50.928;6.856;2024-03-25T02:03:16;33.77;;;3.17;;
5042;SDS011;2540;50.928;6.856;2024-03-25T02:05:42;18.97;;;3.63;;
5042;SDS011;2540;50.928;6.856;2024-03-25T02:08:08;21.13;;;3.57;;
5042;SDS011;2540;50.928;6.856;2024-03-25T02:10:34;19.73;;;4.23;;
5042;SDS011;2540;50.928;6.856;2024-03-25T02:13:00;5.40;;;3.00;;
5042;SDS011;2540;50.928;6.856;2024-03-25T02:15:26;17.53;;;3.00;;
5042;SDS011;2540;50.928;6.856;2024-03-25T02:17:51;14.50;;;3.50;;
5042;SDS011;2540;50.928;6.856;2024-03-25T02:20:17;20.73;;;3.10;;
5042;SDS011;2540;50.928;6.856;2024-03-25T02:22:42;19.00;;;3.27;;
5042;SDS011;2540;50.928;6.856;2024-03-25T02:25:10;12.93;;;2.80;;
5042;SDS011;2540;50.928;6.856;2024-03-25T02:27:39;13.77;;;2.90;;
5042;SDS011;2540;50.928;6.856;2024-03-25T02:30:05;19.73;;;3.17;;
5042;SDS011;2540;50.928;6.856;2024-03-25T02:32:32;15.13;;;2.90;;
5042;SDS011;2540;50.928;6.856;2024-03-25T02:34:57;18.40;;;3.57;;
5042;SDS011;2540;50.928;6.856;2024-03-25T02:37:23;11.87;;;2.80;;
5042;SDS011;2540;50.928;6.856;2024-03-25T02:39:48;12.47;;;3.20;;
5042;SDS011;2540;50.928;6.856;2024-03-25T02:42:13;9.40;;;2.50;;
5042;SDS011;2540;50.928;6.856;2024-03-25T02:44:39;8.93;;;2.80;;
5042;SDS011;2540;50.928;6.856;2024-03-25T02:47:08;20.97;;;3.00;;
5042;SDS011;2540;50.928;6.856;2024-03-25T02:49:33;14.23;;;2.73;;
5042;SDS011;2540;50.928;6.856;2024-03-25T02:51:59;20.83;;;3.27;;
5042;SDS011;2540;50.928;6.856;2024-03-25T02:54:25;12.97;;;2.87;;
5042;SDS011;2540;50.928;6.856;2024-03-25T02:56:50;12.40;;;3.43;;
5042;SDS011;2540;50.928;6.856;2024-03-25T02:59:15;16.67;;;2.80;;
5042;SDS011;2540;50.928;6.856;2024-03-25T03:01:41;20.50;;;3.33;;
5042;SDS011;2540;50.928;6.856;2024-03-25T03:04:06;24.80;;;3.70;;
5042;SDS011;2540;50.928;6.856;2024-03-25T03:06:32;17.63;;;2.80;;
5042;SDS011;2540;50.928;6.856;2024-03-25T03:08:57;17.47;;;3.77;;
5042;SDS011;2540;50.928;6.856;2024-03-25T03:11:22;12.10;;;2.80;;
5042;SDS011;2540;50.928;6.856;2024-03-25T03:13:48;7.77;;;2.80;;
5042;SDS011;2540;50.928;6.856;2024-03-25T03:16:13;20.33;;;2.43;;
5042;SDS011;2540;50.928;6.856;2024-03-25T03:18:39;10.83;;;2.60;;
5042;SDS011;2540;50.928;6.856;2024-03-25T03:21:04;16.07;;;2.97;;
5042;SDS011;2540;50.928;6.856;2024-03-25T03:23:30;14.47;;;3.70;;
5042;SDS011;2540;50.928;6.856;2024-03-25T03:25:55;7.90;;;2.23;;
5042;SDS011;2540;50.928;6.856;2024-03-25T03:28:22;24.33;;;3.80;;
5042;SDS011;2540;50.928;6.856;2024-03-25T03:30:47;15.03;;;2.40;;
5042;SDS011;2540;50.928;6.856;2024-03-25T03:33:12;13.90;;;3.50;;
5042;SDS011;2540;50.928;6.856;2024-03-25T03:35:38;15.37;;;3.17;;
5042;SDS011;2540;50.928;6.856;2024-03-25T03:38:03;22.70;;;3.50;;
5042;SDS011;2540;50.928;6.856;2024-03-25T03:40:29;9.87;;;2.77;;
5042;SDS011;2540;50.928;6.856;2024-03-25T03:42:54;14.40;;;2.53;;
5042;SDS011;2540;50.928;6.856;2024-03-25T03:45:20;15.63;;;2.63;;
5042;SDS011;2540;50.928;6.856;2024-03-25T03:47:46;17.70;;;3.63;;
5042;SDS011;2540;50.928;6.856;2024-03-25T03:50:11;11.53;;;2.30;;
5042;SDS011;2540;50.928;6.856;2024-03-25T03:52:37;23.90;;;4.10;;
5042;SDS011;2540;50.928;6.856;2024-03-25T03:55:02;12.80;;;3.20;;
5042;SDS011;2540;50.928;6.856;2024-03-25T03:57:30;12.67;;;3.30;;
5042;SDS011;2540;50.928;6.856;2024-03-25T03:59:57;19.03;;;3.67;;
5042;SDS011;2540;50.928;6.856;2024-03-25T04:02:22;11.20;;;2.93;;
5042;SDS011;2540;50.928;6.856;2024-03-25T04:04:48;15.87;;;2.57;;
5042;SDS011;2540;50.928;6.856;2024-03-25T04:07:13;16.83;;;2.80;;
5042;SDS011;2540;50.928;6.856;2024-03-25T04:09:39;19.53;;;4.40;;
5042;SDS011;2540;50.928;6.856;2024-03-25T04:12:04;15.10;;;4.00;;
5042;SDS011;2540;50.928;6.856;2024-03-25T04:14:30;16.17;;;3.07;;
5042;SDS011;2540;50.928;6.856;2024-03-25T04:16:56;21.70;;;3.50;;
5042;SDS011;2540;50.928;6.856;2024-03-25T04:19:24;16.97;;;3.30;;
5042;SDS011;2540;50.928;6.856;2024-03-25T04:21:50;14.53;;;2.67;;
5042;SDS011;2540;50.928;6.856;2024-03-25T04:24:16;29.83;;;3.20;;
5042;SDS011;2540;50.928;6.856;2024-03-25T04:26:41;13.67;;;3.73;;
5042;SDS011;2540;50.928;6.856;2024-03-25T04:29:07;16.70;;;3.50;;
5042;SDS011;2540;50.928;6.856;2024-03-25T04:31:32;20.90;;;2.90;;
5042;SDS011;2540;50.928;6.856;2024-03-25T04:33:57;16.07;;;3.50;;
5042;SDS011;2540;50.928;6.856;2024-03-25T04:36:23;10.80;;;2.63;;
5042;SDS011;2540;50.928;6.856;2024-03-25T04:38:48;26.57;;;3.40;;
5042;SDS011;2540;50.928;6.856;2024-03-25T04:41:13;16.70;;;3.33;;
5042;SDS011;2540;50.928;6.856;2024-03-25T04:43:38;15.30;;;3.50;;
5042;SDS011;2540;50.928;6.856;2024-03-25T04:46:04;24.10;;;4.10;;
5042;SDS011;2540;50.928;6.856;2024-03-25T04:48:30;20.50;;;3.70;;
5042;SDS011;2540;50.928;6.856;2024-03-25T04:50:55;12.37;;;3.30;;
5042;SDS011;2540;50.928;6.856;2024-03-25T04:53:20;11.27;;;2.70;;
5042;SDS011;2540;50.928;6.856;2024-03-25T04:55:46;24.50;;;4.43;;
5042;SDS011;2540;50.928;6.856;2024-03-25T04:58:11;16.63;;;3.20;;
5042;SDS011;2540;50.928;6.856;2024-03-25T05:00:36;11.77;;;4.00;;
5042;SDS011;2540;50.928;6.856;2024-03-25T05:03:01;15.57;;;3.27;;
5042;SDS011;2540;50.928;6.856;2024-03-25T05:05:27;11.33;;;3.90;;
5042;SDS011;2540;50.928;6.856;2024-03-25T05:07:53;15.23;;;3.97;;
5042;SDS011;2540;50.928;6.856;2024-03-25T05:10:19;10.40;;;3.80;;
5042;SDS011;2540;50.928;6.856;2024-03-25T05:12:44;8.23;;;3.20;;
5042;SDS011;2540;50.928;6.856;2024-03-25T05:15:09;21.23;;;3.97;;
5042;SDS011;2540;50.928;6.856;2024-03-25T05:17:36;10.80;;;4.00;;
5042;SDS011;2540;50.928;6.856;2024-03-25T05:20:01;14.00;;;3.30;;
5042;SDS011;2540;50.928;6.856;2024-03-25T05:22:26;13.57;;;3.90;;
5042;SDS011;2540;50.928;6.856;2024-03-25T05:24:52;17.07;;;3.27;;
5042;SDS011;2540;50.928;6.856;2024-03-25T05:27:17;8.50;;;3.27;;
5042;SDS011;2540;50.928;6.856;2024-03-25T05:29:42;21.30;;;2.73;;
5042;SDS011;2540;50.928;6.856;2024-03-25T05:32:08;11.70;;;4.57;;
5042;SDS011;2540;50.928;6.856;2024-03-25T05:34:33;15.63;;;3.83;;
5042;SDS011;2540;50.928;6.856;2024-03-25T05:36:58;10.67;;;3.10;;
5042;SDS011;2540;50.928;6.856;2024-03-25T05:39:24;11.67;;;3.40;;
5042;SDS011;2540;50.928;6.856;2024-03-25T05:41:49;15.40;;;3.90;;
5042;SDS011;2540;50.928;6.856;2024-03-25T05:44:15;17.67;;;3.80;;
5042;SDS011;2540;50.928;6.856;2024-03-25T05:46:40;15.87;;;3.63;;
5042;SDS011;2540;50.928;6.856;2024-03-25T05:49:06;16.57;;;3.50;;
5042;SDS011;2540;50.928;6.856;2024-03-25T05:51:31;9.60;;;3.10;;
5042;SDS011;2540;50.928;6.856;2024-03-25T05:53:58;11.70;;;3.43;;
5042;SDS011;2540;50.928;6.856;2024-03-25T05:56:23;15.77;;;4.47;;
5042;SDS011;2540;50.928;6.856;2024-03-25T05:58:52;19.50;;;4.00;;
5042;SDS011;2540;50.928;6.856;2024-03-25T06:01:17;6.63;;;3.63;;
5042;SDS011;2540;50.928;6.856;2024-03-25T06:03:43;12.13;;;3.80;;
5042;SDS011;2540;50.928;6.856;2024-03-25T06:06:08;16.30;;;4.00;;
5042;SDS011;2540;50.928;6.856;2024-03-25T06:08:34;9.67;;;3.43;;
5042;SDS011;2540;50.928;6.856;2024-03-25T06:11:02;16.77;;;4.97;;
5042;SDS011;2540;50.928;6.856;2024-03-25T06:13:27;23.13;;;4.00;;
5042;SDS011;2540;50.928;6.856;2024-03-25T06:15:53;17.00;;;3.97;;
5042;SDS011;2540;50.928;6.856;2024-03-25T06:18:18;16.00;;;4.00;;
5042;SDS011;2540;50.928;6.856;2024-03-25T06:20:43;25.90;;;4.47;;
5042;SDS011;2540;50.928;6.856;2024-03-25T06:23:09;14.27;;;5.67;;
5042;SDS011;2540;50.928;6.856;2024-03-25T06:25:34;14.43;;;4.40;;
5042;SDS011;2540;50.928;6.856;2024-03-25T06:28:00;14.00;;;4.43;;
5042;SDS011;2540;50.928;6.856;2024-03-25T06:30:26;9.87;;;3.90;;
5042;SDS011;2540;50.928;6.856;2024-03-25T06:33:09;13.97;;;3.70;;
5042;SDS011;2540;50.928;6.856;2024-03-25T06:35:53;9.30;;;3.23;;
5042;SDS011;2540;50.928;6.856;2024-03-25T06:38:18;19.33;;;4.30;;
5042;SDS011;2540;50.928;6.856;2024-03-25T06:40:45;16.67;;;3.20;;
5042;SDS011;2540;50.928;6.856;2024-03-25T06:43:10;12.30;;;3.20;;
5042;SDS011;2540;50.928;6.856;2024-03-25T06:45:36;11.93;;;3.13;;
5042;SDS011;2540;50.928;6.856;2024-03-25T06:48:01;11.40;;;3.57;;
5042;SDS011;2540;50.928;6.856;2024-03-25T06:50:26;21.20;;;3.53;;
5042;SDS011;2540;50.928;6.856;2024-03-25T06:52:52;13.83;;;3.80;;
5042;SDS011;2540;50.928;6.856;2024-03-25T06:55:17;12.20;;;3.60;;
5042;SDS011;2540;50.928;6.856;2024-03-25T06:57:47;9.33;;;2.83;;
5042;SDS011;2540;50.928;6.856;2024-03-25T07:00:15;10.00;;;3.53;;
5042;SDS011;2540;50.928;6.856;2024-03-25T07:02:41;10.00;;;3.40;;
5042;SDS011;2540;50.928;6.856;2024-03-25T07:05:06;12.43;;;3.00;;
5042;SDS011;2540;50.928;6.856;2024-03-25T07:07:32;10.93;;;2.40;;
5042;SDS011;2540;50.928;6.856;2024-03-25T07:09:59;10.93;;;3.23;;
5042;SDS011;2540;50.928;6.856;2024-03-25T07:12:24;13.90;;;4.07;;
5042;SDS011;2540;50.928;6.856;2024-03-25T07:14:49;17.77;;;3.50;;
5042;SDS011;2540;50.928;6.856;2024-03-25T07:17:14;7.17;;;2.73;;
5042;SDS011;2540;50.928;6.856;2024-03-25T07:19:40;5.67;;;2.23;;
5042;SDS011;2540;50.928;6.856;2024-03-25T07:22:05;15.80;;;3.20;;
5042;SDS011;2540;50.928;6.856;2024-03-25T07:24:30;11.90;;;2.43;;
5042;SDS011;2540;50.928;6.856;2024-03-25T07:26:56;9.30;;;2.40;;
5042;SDS011;2540;50.928;6.856;2024-03-25T07:29:21;7.53;;;2.70;;
5042;SDS011;2540;50.928;6.856;2024-03-25T07:31:47;19.23;;;2.70;;
5042;SDS011;2540;50.928;6.856;2024-03-25T07:34:12;10.13;;;4.30;;
5042;SDS011;2540;50.928;6.856;2024-03-25T07:36:37;3.80;;;2.07;;
5042;SDS011;2540;50.928;6.856;2024-03-25T07:39:03;10.87;;;2.50;;
5042;SDS011;2540;50.928;6.856;2024-03-25T07:41:31;7.73;;;2.70;;
5042;SDS011;2540;50.928;6.856;2024-03-25T07:43:56;8.07;;;2.70;;
5042;SDS011;2540;50.928;6.856;2024-03-25T07:46:21;4.80;;;2.40;;
5042;SDS011;2540;50.928;6.856;2024-03-25T07:48:46;11.70;;;3.37;;
5042;SDS011;2540;50.928;6.856;2024-03-25T07:51:12;9.37;;;2.87;;
5042;SDS011;2540;50.928;6.856;2024-03-25T07:53:37;8.17;;;2.87;;
5042;SDS011;2540;50.928;6.856;2024-03-25T07:56:02;15.10;;;2.80;;
5042;SDS011;2540;50.928;6.856;2024-03-25T07:58:29;9.73;;;2.90;;
5042;SDS011;2540;50.928;6.856;2024-03-25T08:00:55;7.27;;;2.93;;
5042;SDS011;2540;50.928;6.856;2024-03-25T08:03:20;10.53;;;3.43;;
5042;SDS011;2540;50.928;6.856;2024-03-25T08:05:45;10.40;;;3.90;;
5042;SDS011;2540;50.928;6.856;2024-03-25T08:08:11;13.27;;;4.10;;
5042;SDS011;2540;50.928;6.856;2024-03-25T08:10:36;13.60;;;4.57;;
5042;SDS011;2540;50.928;6.856;2024-03-25T08:13:02;9.07;;;3.83;;
5042;SDS011;2540;50.928;6.856;2024-03-25T08:15:28;11.00;;;4.67;;
5042;SDS011;2540;50.928;6.856;2024-03-25T08:17:53;11.93;;;3.60;;
5042;SDS011;2540;50.928;6.856;2024-03-25T08:20:19;12.50;;;3.60;;
5042;SDS011;2540;50.928;6.856;2024-03-25T08:22:44;9.13;;;3.43;;
5042;SDS011;2540;50.928;6.856;2024-03-25T08:25:10;18.77;;;4.00;;
5042;SDS011;2540;50.928;6.856;2024-03-25T08:27:36;12.27;;;3.03;;
5042;SDS011;2540;50.928;6.856;2024-03-25T08:30:02;19.17;;;4.00;;
5042;SDS011;2540;50.928;6.856;2024-03-25T08:32:27;15.53;;;4.07;;
5042;SDS011;2540;50.928;6.856;2024-03-25T08:34:54;9.13;;;3.00;;
5042;SDS011;2540;50.928;6.856;2024-03-25T08:37:19;15.53;;;3.30;;
5042;SDS011;2540;50.928;6.856;2024-03-25T08:39:44;22.03;;;4.40;;
5042;SDS011;2540;50.928;6.856;2024-03-25T08:42:10;20.50;;;4.63;;
5042;SDS011;2540;50.928;6.856;2024-03-25T08:44:35;15.00;;;4.07;;
5042;SDS011;2540;50.928;6.856;2024-03-25T08:47:00;13.90;;;3.93;;
5042;SDS011;2540;50.928;6.856;2024-03-25T08:49:25;16.83;;;3.30;;
5042;SDS011;2540;50.928;6.856;2024-03-25T08:51:51;10.20;;;2.60;;
5042;SDS011;2540;50.928;6.856;2024-03-25T08:54:16;7.73;;;2.90;;
5042;SDS011;2540;50.928;6.856;2024-03-25T08:56:42;8.83;;;2.47;;
5042;SDS011;2540;50.928;6.856;2024-03-25T08:59:07;9.90;;;2.50;;
5042;SDS011;2540;50.928;6.856;2024-03-25T09:01:34;12.63;;;2.77;;
5042;SDS011;2540;50.928;6.856;2024-03-25T09:03:59;11.73;;;2.90;;
5042;SDS011;2540;50.928;6.856;2024-03-25T09:06:25;7.17;;;2.70;;
5042;SDS011;2540;50.928;6.856;2024-03-25T09:08:50;10.50;;;2.00;;
5042;SDS011;2540;50.928;6.856;2024-03-25T09:11:34;10.17;;;2.07;;
5042;SDS011;2540;50.928;6.856;2024-03-25T09:14:12;10.43;;;2.10;;
5042;SDS011;2540;50.928;6.856;2024-03-25T09:16:38;9.60;;;2.20;;
5042;SDS011;2540;50.928;6.856;2024-03-25T09:19:03;19.53;;;3.03;;
5042;SDS011;2540;50.928;6.856;2024-03-25T09:21:28;18.53;;;2.97;;
5042;SDS011;2540;50.928;6.856;2024-03-25T09:23:54;12.83;;;2.87;;
5042;SDS011;2540;50.928;6.856;2024-03-25T09:26:21;11.07;;;1.83;;
5042;SDS011;2540;50.928;6.856;2024-03-25T09:28:47;10.50;;;2.20;;
5042;SDS011;2540;50.928;6.856;2024-03-25T09:31:12;20.30;;;3.77;;
5042;SDS011;2540;50.928;6.856;2024-03-25T09:33:38;9.00;;;3.30;;
5042;SDS011;2540;50.928;6.856;2024-03-25T09:36:03;20.13;;;4.30;;
5042;SDS011;2540;50.928;6.856;2024-03-25T09:38:29;14.40;;;2.93;;
5042;SDS011;2540;50.928;6.856;2024-03-25T09:40:54;7.27;;;2.30;;
5042;SDS011;2540;50.928;6.856;2024-03-25T09:43:23;10.70;;;2.80;;
5042;SDS011;2540;50.928;6.856;2024-03-25T09:45:50;18.37;;;2.50;;
5042;SDS011;2540;50.928;6.856;2024-03-25T09:48:17;13.57;;;3.23;;
5042;SDS011;2540;50.928;6.856;2024-03-25T09:50:44;12.20;;;2.97;;
5042;SDS011;2540;50.928;6.856;2024-03-25T09:53:11;24.50;;;3.80;;
5042;SDS011;2540;50.928;6.856;2024-03-25T09:55:36;15.77;;;2.30;;
5042;SDS011;2540;50.928;6.856;2024-03-25T09:58:02;11.53;;;2.40;;
5042;SDS011;2540;50.928;6.856;2024-03-25T10:00:28;10.40;;;2.10;;
5042;SDS011;2540;50.928;6.856;2024-03-25T10:02:54;28.70;;;3.40;;
5042;SDS011;2540;50.928;6.856;2024-03-25T10:05:19;11.83;;;2.67;;
5042;SDS011;2540;50.928;6.856;2024-03-25T10:07:45;8.30;;;3.00;;
5042;SDS011;2540;50.928;6.856;2024-03-25T10:10:10;9.90;;;2.30;;
5042;SDS011;2540;50.928;6.856;2024-03-25T10:12:36;8.57;;;2.20;;
5042;SDS011;2540;50.928;6.856;2024-03-25T10:15:01;12.97;;;2.47;;
5042;SDS011;2540;50.928;6.856;2024-03-25T10:17:27;6.57;;;2.50;;
5042;SDS011;2540;50.928;6.856;2024-03-25T10:19:55;8.80;;;2.90;;
5042;SDS011;2540;50.928;6.856;2024-03-25T10:22:20;12.83;;;2.90;;
5042;SDS011;2540;50.928;6.856;2024-03-25T10:24:46;10.37;;;3.30;;
5042;SDS011;2540;50.928;6.856;2024-03-25T10:27:21;5.03;;;2.37;;
5042;SDS011;2540;50.928;6.856;2024-03-25T10:29:47;9.83;;;2.63;;
5042;SDS011;2540;50.928;6.856;2024-03-25T10:32:13;8.23;;;3.27;;
5042;SDS011;2540;50.928;6.856;2024-03-25T10:34:39;10.93;;;2.50;;
5042;SDS011;2540;50.928;6.856;2024-03-25T10:37:04;9.07;;;2.70;;
5042;SDS011;2540;50.928;6.856;2024-03-25T10:39:31;6.03;;;2.37;;
5042;SDS011;2540;50.928;6.856;2024-03-25T10:41:57;4.70;;;1.67;;
5042;SDS011;2540;50.928;6.856;2024-03-25T10:44:25;9.30;;;2.23;;
5042;SDS011;2540;50.928;6.856;2024-03-25T10:46:53;4.10;;;1.97;;
5042;SDS011;2540;50.928;6.856;2024-03-25T10:52:03;5.10;;;1.97;;
5042;SDS011;2540;50.928;6.856;2024-03-25T10:54:29;8.33;;;2.60;;
5042;SDS011;2540;50.928;6.856;2024-03-25T10:56:56;6.07;;;1.63;;
5042;SDS011;2540;50.928;6.856;2024-03-25T10:59:23;6.97;;;2.63;;
5042;SDS011;2540;50.928;6.856;2024-03-25T11:01:49;8.50;;;1.87;;
5042;SDS011;2540;50.928;6.856;2024-03-25T11:04:14;11.90;;;3.20;;
5042;SDS011;2540;50.928;6.856;2024-03-25T11:06:40;15.50;;;1.93;;
5042;SDS011;2540;50.928;6.856;2024-03-25T11:09:05;6.90;;;1.57;;
5042;SDS011;2540;50.928;6.856;2024-03-25T11:11:33;4.20;;;1.57;;
5042;SDS011;2540;50.928;6.856;2024-03-25T11:13:59;7.77;;;2.57;;
5042;SDS011;2540;50.928;6.856;2024-03-25T11:16:31;6.87;;;2.30;;
5042;SDS011;2540;50.928;6.856;2024-03-25T11:19:00;5.17;;;1.90;;
5042;SDS011;2540;50.928;6.856;2024-03-25T11:21:27;9.30;;;2.13;;
5042;SDS011;2540;50.928;6.856;2024-03-25T11:23:52;8.20;;;2.67;;
5042;SDS011;2540;50.928;6.856;2024-03-25T11:26:21;6.97;;;1.80;;
5042;SDS011;2540;50.928;6.856;2024-03-25T11:28:49;7.40;;;2.00;;
5042;SDS011;2540;50.928;6.856;2024-03-25T11:31:14;7.67;;;1.80;;
5042;SDS011;2540;50.928;6.856;2024-03-25T11:33:40;6.43;;;2.43;;
5042;SDS011;2540;50.928;6.856;2024-03-25T11:36:05;6.47;;;1.57;;
5042;SDS011;2540;50.928;6.856;2024-03-25T11:38:31;4.77;;;2.03;;
5042;SDS011;2540;50.928;6.856;2024-03-25T11:40:56;8.77;;;2.40;;
5042;SDS011;2540;50.928;6.856;2024-03-25T11:43:22;3.77;;;1.37;;
5042;SDS011;2540;50.928;6.856;2024-03-25T11:45:48;7.30;;;2.73;;
5042;SDS011;2540;50.928;6.856;2024-03-25T11:48:17;5.20;;;1.70;;
5042;SDS011;2540;50.928;6.856;2024-03-25T11:50:46;3.03;;;1.57;;
5042;SDS011;2540;50.928;6.856;2024-03-25T11:53:13;5.10;;;1.80;;
5042;SDS011;2540;50.928;6.856;2024-03-25T11:55:38;5.70;;;2.07;;
5042;SDS011;2540;50.928;6.856;2024-03-25T11:58:04;7.40;;;1.53;;
5042;SDS011;2540;50.928;6.856;2024-03-25T12:00:29;4.87;;;1.13;;
5042;SDS011;2540;50.928;6.856;2024-03-25T12:02:55;5.83;;;1.37;;
5042;SDS011;2540;50.928;6.856;2024-03-25T12:05:20;4.90;;;1.30;;
5042;SDS011;2540;50.928;6.856;2024-03-25T12:07:45;3.60;;;1.40;;
5042;SDS011;2540;50.928;6.856;2024-03-25T12:10:11;4.93;;;1.40;;
5042;SDS011;2540;50.928;6.856;2024-03-25T12:12:55;5.53;;;1.40;;
5042;SDS011;2540;50.928;6.856;2024-03-25T12:15:20;8.13;;;2.07;;
5042;SDS011;2540;50.928;6.856;2024-03-25T12:17:46;6.03;;;1.60;;
5042;SDS011;2540;50.928;6.856;2024-03-25T12:20:11;5.40;;;1.40;;
5042;SDS011;2540;50.928;6.856;2024-03-25T12:22:37;5.27;;;1.50;;
5042;SDS011;2540;50.928;6.856;2024-03-25T12:25:03;2.70;;;1.27;;
5042;SDS011;2540;50.928;6.856;2024-03-25T12:27:31;7.40;;;1.50;;
5042;SDS011;2540;50.928;6.856;2024-03-25T12:30:14;6.60;;;1.60;;
5042;SDS011;2540;50.928;6.856;2024-03-25T12:32:40;9.80;;;1.53;;
5042;SDS011;2540;50.928;6.856;2024-03-25T12:35:16;5.20;;;1.63;;
5042;SDS011;2540;50.928;6.856;2024-03-25T12:37:43;3.07;;;1.50;;
5042;SDS011;2540;50.928;6.856;2024-03-25T12:40:10;2.50;;;1.50;;
5042;SDS011;2540;50.928;6.856;2024-03-25T12:42:35;6.93;;;1.93;;
5042;SDS011;2540;50.928;6.856;2024-03-25T12:45:01;5.33;;;1.60;;
5042;SDS011;2540;50.928;6.856;2024-03-25T12:47:28;2.43;;;1.40;;
5042;SDS011;2540;50.928;6.856;2024-03-25T12:49:53;2.53;;;1.40;;
5042;SDS011;2540;50.928;6.856;2024-03-25T12:52:18;6.57;;;1.90;;
5042;SDS011;2540;50.928;6.856;2024-03-25T12:54:44;3.43;;;1.63;;
5042;SDS011;2540;50.928;6.856;2024-03-25T12:57:10;5.30;;;1.73;;
5042;SDS011;2540;50.928;6.856;2024-03-25T12:59:36;3.13;;;1.30;;
5042;SDS011;2540;50.928;6.856;2024-03-25T13:02:01;4.90;;;1.50;;
5042;SDS011;2540;50.928;6.856;2024-03-25T13:04:27;1.57;;;1.40;;
5042;SDS011;2540;50.928;6.856;2024-03-25T13:06:53;8.93;;;1.70;;
5042;SDS011;2540;50.928;6.856;2024-03-25T13:09:18;4.10;;;1.33;;
5042;SDS011;2540;50.928;6.856;2024-03-25T13:11:43;3.13;;;1.17;;
5042;SDS011;2540;50.928;6.856;2024-03-25T13:14:10;4.40;;;2.00;;
5042;SDS011;2540;50.928;6.856;2024-03-25T13:16:37;2.83;;;1.27;;
5042;SDS011;2540;50.928;6.856;2024-03-25T13:19:02;4.57;;;1.90;;
5042;SDS011;2540;50.928;6.856;2024-03-25T13:21:27;5.20;;;2.50;;
5042;SDS011;2540;50.928;6.856;2024-03-25T13:23:53;3.60;;;1.40;;
5042;SDS011;2540;50.928;6.856;2024-03-25T13:26:18;4.10;;;1.37;;
5042;SDS011;2540;50.928;6.856;2024-03-25T13:28:43;4.30;;;1.47;;
5042;SDS011;2540;50.928;6.856;2024-03-25T13:31:09;4.37;;;1.40;;
5042;SDS011;2540;50.928;6.856;2024-03-25T13:33:34;7.90;;;1.90;;
5042;SDS011;2540;50.928;6.856;2024-03-25T13:36:01;6.63;;;1.50;;
5042;SDS011;2540;50.928;6.856;2024-03-25T13:38:26;3.27;;;1.23;;
5042;SDS011;2540;50.928;6.856;2024-03-25T13:40:52;6.03;;;1.57;;
5042;SDS011;2540;50.928;6.856;2024-03-25T13:43:17;4.67;;;1.60;;
5042;SDS011;2540;50.928;6.856;2024-03-25T13:45:46;9.50;;;1.50;;
5042;SDS011;2540;50.928;6.856;2024-03-25T13:48:12;2.77;;;1.50;;
5042;SDS011;2540;50.928;6.856;2024-03-25T13:50:38;3.73;;;1.40;;
5042;SDS011;2540;50.928;6.856;2024-03-25T13:53:03;3.63;;;1.43;;
5042;SDS011;2540;50.928;6.856;2024-03-25T13:55:29;4.77;;;2.00;;
5042;SDS011;2540;50.928;6.856;2024-03-25T13:57:54;7.30;;;1.93;;
5042;SDS011;2540;50.928;6.856;2024-03-25T14:00:19;5.57;;;1.80;;
5042;SDS011;2540;50.928;6.856;2024-03-25T14:02:47;3.70;;;1.57;;
5042;SDS011;2540;50.928;6.856;2024-03-25T14:05:12;2.80;;;1.40;;
5042;SDS011;2540;50.928;6.856;2024-03-25T14:07:38;3.53;;;1.70;;
5042;SDS011;2540;50.928;6.856;2024-03-25T14:10:03;3.77;;;1.30;;
5042;SDS011;2540;50.928;6.856;2024-03-25T14:12:29;4.47;;;1.63;;
5042;SDS011;2540;50.928;6.856;2024-03-25T14:14:54;4.43;;;1.60;;
5042;SDS011;2540;50.928;6.856;2024-03-25T14:17:20;4.83;;;1.47;;
5042;SDS011;2540;50.928;6.856;2024-03-25T14:19:45;3.63;;;1.20;;
5042;SDS011;2540;50.928;6.856;2024-03-25T14:22:10;5.03;;;1.60;;
5042;SDS011;2540;50.928;6.856;2024-03-25T14:24:36;2.13;;;1.33;;
5042;SDS011;2540;50.928;6.856;2024-03-25T14:27:01;2.30;;;1.63;;
5042;SDS011;2540;50.928;6.856;2024-03-25T14:29:26;5.57;;;1.73;;
5042;SDS011;2540;50.928;6.856;2024-03-25T14:31:51;2.80;;;1.30;;
5042;SDS011;2540;50.928;6.856;2024-03-25T14:34:17;3.40;;;1.53;;
5042;SDS011;2540;50.928;6.856;2024-03-25T14:36:42;6.43;;;1.90;;
5042;SDS011;2540;50.928;6.856;2024-03-25T14:39:08;3.70;;;1.80;;
5042;SDS011;2540;50.928;6.856;2024-03-25T14:41:40;3.97;;;1.60;;
5042;SDS011;2540;50.928;6.856;2024-03-25T14:44:05;3.07;;;1.20;;
5042;SDS011;2540;50.928;6.856;2024-03-25T14:46:31;4.50;;;1.40;;
5042;SDS011;2540;50.928;6.856;2024-03-25T14:48:56;5.20;;;1.77;;
5042;SDS011;2540;50.928;6.856;2024-03-25T14:51:27;4.53;;;1.33;;
5042;SDS011;2540;50.928;6.856;2024-03-25T14:53:53;2.20;;;1.70;;
5042;SDS011;2540;50.928;6.856;2024-03-25T14:56:18;5.97;;;1.23;;
5042;SDS011;2540;50.928;6.856;2024-03-25T14:58:43;6.63;;;1.70;;
5042;SDS011;2540;50.928;6.856;2024-03-25T15:01:10;2.30;;;1.40;;
5042;SDS011;2540;50.928;6.856;2024-03-25T15:03:35;4.40;;;1.33;;